createdAt,value
2018-11-04T00:03:10.925Z,58.83
2018-11-04T00:08:13.357Z,57.48
2018-11-04T00:13:15.812Z,57.58
2018-11-04T00:18:18.057Z,58.90
2018-11-04T00:23:20.347Z,58.23
2018-11-04T00:28:22.643Z,60.60
2018-11-04T00:33:25.062Z,55.78
2018-11-04T00:38:27.424Z,57.97
2018-11-04T00:43:29.890Z,60.07
2018-11-04T00:48:32.545Z,60.50
2018-11-04T00:53:34.935Z,57.85
2018-11-04T00:58:37.315Z,56.40
2018-11-04T01:03:39.726Z,57.37
2018-11-04T01:08:42.103Z,60.13
2018-11-04T01:13:44.668Z,67.07
2018-11-04T01:18:47.070Z,67.43
2018-11-04T01:23:49.447Z,69.13
2018-11-04T01:28:51.850Z,73.33
2018-11-04T01:33:54.206Z,75.90
2018-11-04T01:38:56.592Z,70.83
2018-11-04T01:43:58.930Z,73.57
2018-11-04T01:49:01.225Z,75.60
2018-11-04T01:54:04.253Z,80.37
2018-11-04T01:59:07.705Z,87.20
2018-11-04T02:04:10.093Z,78.30
2018-11-04T02:09:12.748Z,83.05
2018-11-04T02:14:15.089Z,85.20
2018-11-04T02:19:17.383Z,85.12
2018-11-04T02:24:19.741Z,88.03
2018-11-04T02:29:22.022Z,89.77
2018-11-04T02:34:24.382Z,90.30
2018-11-04T02:39:26.697Z,89.37
2018-11-04T02:44:29.113Z,92.13
2018-11-04T02:49:31.428Z,85.62
2018-11-04T02:54:33.738Z,74.17
2018-11-04T02:59:36.131Z,78.30
2018-11-04T03:04:38.491Z,86.80
2018-11-04T03:09:40.858Z,88.30
2018-11-04T03:14:43.234Z,82.13
2018-11-04T03:19:45.558Z,86.93
2018-11-04T03:24:47.998Z,92.43
2018-11-04T03:29:50.214Z,96.35
2018-11-04T03:34:52.549Z,95.30
2018-11-04T03:39:54.828Z,111.67
2018-11-04T03:44:57.232Z,104.97
2018-11-04T03:49:59.643Z,111.30
2018-11-04T03:55:01.937Z,108.85
2018-11-04T04:00:05.362Z,119.65
2018-11-04T04:05:08.560Z,116.50
2018-11-04T04:10:10.865Z,115.70
2018-11-04T04:15:13.225Z,115.97
2018-11-04T04:20:15.530Z,106.83
2018-11-04T04:25:17.893Z,108.37
2018-11-04T04:30:20.532Z,111.57
2018-11-04T04:35:22.869Z,101.12
2018-11-04T04:40:25.162Z,104.72
2018-11-04T04:45:27.517Z,113.60
2018-11-04T04:50:29.821Z,132.70
2018-11-04T04:55:32.232Z,131.30
2018-11-04T05:00:34.752Z,120.67
2018-11-04T05:05:37.059Z,108.75
2018-11-04T05:10:39.368Z,100.35
2018-11-04T05:15:41.812Z,94.55
2018-11-04T05:20:44.115Z,98.30
2018-11-04T05:25:46.435Z,91.53
2018-11-04T05:30:49.019Z,83.42
2018-11-04T05:35:51.372Z,88.62
2018-11-04T05:40:53.675Z,83.07
2018-11-04T05:45:56.051Z,76.50
2018-11-04T05:50:58.352Z,81.83
2018-11-04T05:56:00.692Z,85.83
2018-11-04T06:01:03.191Z,78.93
2018-11-04T06:06:05.528Z,79.47
2018-11-04T06:11:07.818Z,69.62
2018-11-04T06:16:10.240Z,74.75
2018-11-04T06:21:12.559Z,77.53
2018-11-04T06:26:14.864Z,72.83
2018-11-04T06:31:17.196Z,63.23
2018-11-04T06:36:19.691Z,61.83
2018-11-04T06:41:22.096Z,69.97
2018-11-04T06:46:24.442Z,72.93
2018-11-04T06:51:26.744Z,78.57
2018-11-04T06:56:29.039Z,74.30
2018-11-04T07:01:31.345Z,66.03
2018-11-04T07:06:33.648Z,81.87
2018-11-04T07:11:36.117Z,66.10
2018-11-04T07:16:38.471Z,76.87
2018-11-04T07:21:40.808Z,84.53
2018-11-04T07:26:43.409Z,81.00
2018-11-04T07:31:45.904Z,74.72
2018-11-04T07:36:48.215Z,89.03
2018-11-04T07:41:50.514Z,72.33
2018-11-04T07:46:52.974Z,79.00
2018-11-04T07:51:55.804Z,75.72
2018-11-04T07:56:58.147Z,70.08
2018-11-04T08:02:00.692Z,72.20
2018-11-04T08:07:03.316Z,69.17
2018-11-04T08:12:05.641Z,74.17
2018-11-04T08:17:08.042Z,65.78
2018-11-04T08:22:10.345Z,69.55
2018-11-04T08:27:12.687Z,67.30
2018-11-04T08:32:15.027Z,72.17
2018-11-04T08:37:17.333Z,71.42
2018-11-04T08:42:19.835Z,71.80
2018-11-04T08:47:22.277Z,69.00
2018-11-04T08:52:24.656Z,72.17
2018-11-04T08:57:26.929Z,73.20
2018-11-04T09:02:29.224Z,73.00
2018-11-04T09:07:31.552Z,72.58
2018-11-04T09:12:33.872Z,72.22
2018-11-04T09:17:36.303Z,72.42
2018-11-04T09:22:39.076Z,72.60
2018-11-04T09:27:41.397Z,67.60
2018-11-04T09:32:44.451Z,67.63
2018-11-04T09:37:46.780Z,62.13
2018-11-04T09:42:49.102Z,54.55
2018-11-04T09:47:51.432Z,53.13
2018-11-04T09:52:53.804Z,50.33
2018-11-04T09:57:56.106Z,47.05
2018-11-04T10:02:58.427Z,46.63
2018-11-04T10:08:00.747Z,42.27
2018-11-04T10:13:03.130Z,41.05
2018-11-04T10:18:05.476Z,38.58
2018-11-04T10:23:07.785Z,42.53
2018-11-04T10:28:10.199Z,43.58
2018-11-04T10:33:12.513Z,43.87
2018-11-04T10:38:14.841Z,42.50
2018-11-04T10:43:17.222Z,39.33
2018-11-04T10:48:19.598Z,36.60
2018-11-04T10:53:21.939Z,31.10
2018-11-04T10:58:24.347Z,41.58
2018-11-04T11:03:26.715Z,32.98
2018-11-04T11:08:29.074Z,28.20
2018-11-04T11:13:31.394Z,28.67
2018-11-04T11:18:33.743Z,26.65
2018-11-04T11:23:36.038Z,26.07
2018-11-04T11:28:38.772Z,26.02
2018-11-04T11:33:41.099Z,22.93
2018-11-04T11:38:43.640Z,22.05
2018-11-04T11:43:46.097Z,24.98
2018-11-04T11:48:48.492Z,24.65
2018-11-04T11:53:50.795Z,21.85
2018-11-04T11:58:53.193Z,25.12
2018-11-04T12:03:56.812Z,24.65
2018-11-04T12:08:59.208Z,24.30
2018-11-04T12:14:02.072Z,24.15
2018-11-04T12:19:04.467Z,22.98
2018-11-04T12:24:06.948Z,22.82
2018-11-04T12:29:09.278Z,22.07
2018-11-04T12:34:11.603Z,19.95
2018-11-04T12:39:13.951Z,20.10
2018-11-04T12:44:16.494Z,12.68
2018-11-04T12:49:19.374Z,14.90
2018-11-04T12:54:21.672Z,15.50
2018-11-04T12:59:23.980Z,16.95
2018-11-04T13:04:26.271Z,17.67
2018-11-04T13:09:28.761Z,20.60
2018-11-04T13:14:31.092Z,16.25
2018-11-04T13:19:33.472Z,17.15
2018-11-04T13:24:35.928Z,15.03
2018-11-04T13:29:38.233Z,16.45
2018-11-04T13:34:40.644Z,10.72
2018-11-04T13:39:42.976Z,10.38
2018-11-04T13:44:45.306Z,13.20
2018-11-04T13:49:47.667Z,11.53
2018-11-04T13:54:49.980Z,16.02
2018-11-04T13:59:52.279Z,16.37
2018-11-04T14:04:54.579Z,17.27
2018-11-04T14:09:56.967Z,17.95
2018-11-04T14:14:59.337Z,17.32
2018-11-04T14:20:02.747Z,16.95
2018-11-04T14:25:05.980Z,19.15
2018-11-04T14:30:11.507Z,18.55
2018-11-04T14:35:13.863Z,20.37
2018-11-04T14:40:16.172Z,19.35
2018-11-04T14:45:18.484Z,18.85
2018-11-04T14:50:20.876Z,17.35
2018-11-04T14:55:23.272Z,18.57
2018-11-04T15:00:25.689Z,16.97
2018-11-04T15:05:28.113Z,16.57
2018-11-04T15:10:30.571Z,20.10
2018-11-04T15:15:33.019Z,21.52
2018-11-04T15:20:35.534Z,25.68
2018-11-04T15:25:37.864Z,28.32
2018-11-04T15:30:40.205Z,30.27
2018-11-04T15:35:42.588Z,32.55
2018-11-04T15:40:45.032Z,31.00
2018-11-04T15:45:47.823Z,32.93
2018-11-04T15:50:50.403Z,31.07
2018-11-04T15:55:52.848Z,36.50
2018-11-04T16:00:55.254Z,38.10
2018-11-04T16:05:57.678Z,38.88
2018-11-04T16:10:59.940Z,42.03
2018-11-04T16:16:02.329Z,41.90
2018-11-04T16:21:04.843Z,39.18
2018-11-04T16:26:07.184Z,41.83
2018-11-04T16:31:09.700Z,38.02
2018-11-04T16:36:12.224Z,39.42
2018-11-04T16:41:14.599Z,44.03
2018-11-04T16:46:16.928Z,41.63
2018-11-04T16:51:19.275Z,40.05
2018-11-04T16:56:21.689Z,39.88
2018-11-04T17:01:24.763Z,38.10
2018-11-04T17:06:27.141Z,36.05
2018-11-04T17:11:29.545Z,34.73
2018-11-04T17:16:31.872Z,37.73
2018-11-04T17:21:34.247Z,38.48
2018-11-04T17:26:36.576Z,40.00
2018-11-04T17:31:38.907Z,41.83
2018-11-04T17:36:41.306Z,42.15
2018-11-04T17:41:43.613Z,43.15
2018-11-04T17:46:45.900Z,40.90
2018-11-04T17:51:48.581Z,42.65
2018-11-04T17:56:51.086Z,46.33
2018-11-04T18:01:53.400Z,46.77
2018-11-04T18:06:55.776Z,46.30
2018-11-04T18:11:58.076Z,49.70
2018-11-04T18:17:00.357Z,48.20
2018-11-04T18:22:02.741Z,53.45
2018-11-04T18:27:05.121Z,50.90
2018-11-04T18:32:08.094Z,54.33
2018-11-04T18:37:10.352Z,56.33
2018-11-04T18:42:13.085Z,68.35
2018-11-04T18:47:15.555Z,61.58
2018-11-04T18:52:18.077Z,55.97
2018-11-04T18:57:20.314Z,51.63
2018-11-04T19:02:22.669Z,47.98
2018-11-04T19:07:25.079Z,52.67
2018-11-04T19:12:28.683Z,49.40
2018-11-04T19:17:31.076Z,58.92
2018-11-04T19:22:33.503Z,58.73
2018-11-04T19:27:35.913Z,55.12
2018-11-04T19:32:39.724Z,52.50
2018-11-04T19:37:42.092Z,53.73
2018-11-04T19:42:44.463Z,53.05
2018-11-04T19:47:46.728Z,52.50
2018-11-04T19:52:49.261Z,54.53
2018-11-04T19:57:51.567Z,58.75
2018-11-04T20:02:53.884Z,60.98
2018-11-04T20:07:56.199Z,63.40
2018-11-04T20:13:04.262Z,71.35
2018-11-04T20:18:12.446Z,66.95
2018-11-04T20:23:14.795Z,64.15
2018-11-04T20:28:17.080Z,62.80
2018-11-04T20:33:19.507Z,61.88
2018-11-04T20:38:27.679Z,58.50
2018-11-04T20:43:30.034Z,61.92
2018-11-04T20:48:38.132Z,60.35
2018-11-04T20:53:40.503Z,59.03
2018-11-04T20:58:42.815Z,58.50
2018-11-04T21:03:45.171Z,45.23
2018-11-04T21:08:47.459Z,40.30
2018-11-04T21:13:49.788Z,38.55
2018-11-04T21:18:52.069Z,36.90
2018-11-04T21:23:54.432Z,38.02
2018-11-04T21:28:57.100Z,37.35
2018-11-04T21:33:59.381Z,36.83
2018-11-04T21:39:01.693Z,34.95
2018-11-04T21:44:04.184Z,37.10
2018-11-04T21:49:06.354Z,34.63
2018-11-04T21:54:08.781Z,36.98
2018-11-04T21:59:11.077Z,35.33
2018-11-04T22:04:13.558Z,35.50
2018-11-04T22:09:15.859Z,35.65
2018-11-04T22:14:18.161Z,38.67
2018-11-04T22:19:20.524Z,37.08
2018-11-04T22:24:22.996Z,31.95
2018-11-04T22:29:25.279Z,34.63
2018-11-04T22:34:27.597Z,36.73
2018-11-04T22:39:29.971Z,34.78
2018-11-04T22:44:32.275Z,34.30
2018-11-04T22:49:34.557Z,33.50
2018-11-04T22:54:36.928Z,35.48
2018-11-04T22:59:39.235Z,36.40
2018-11-04T23:04:47.253Z,36.08
2018-11-04T23:09:49.576Z,30.32
2018-11-04T23:14:51.873Z,33.80
2018-11-04T23:19:54.210Z,30.45
2018-11-04T23:24:56.541Z,32.17
2018-11-04T23:29:58.851Z,32.65
2018-11-04T23:35:01.178Z,34.13
2018-11-04T23:40:03.560Z,32.90
2018-11-04T23:45:07.003Z,34.73
2018-11-04T23:50:12.429Z,36.13
2018-11-04T23:55:15.211Z,32.93
